createdAt,value
2017-03-22T00:00:05.731Z,21.3
2017-03-22T00:02:07.930Z,21.3
2017-03-22T00:04:04.838Z,21.3
2017-03-22T00:06:05.798Z,21.3
2017-03-22T00:08:05.022Z,21.3
2017-03-22T00:10:10.347Z,21.3
2017-03-22T00:12:05.328Z,21.3
2017-03-22T00:14:05.020Z,21.3
2017-03-22T00:16:04.959Z,21.3
2017-03-22T00:18:07.905Z,21.3
2017-03-22T00:20:14.838Z,21.3
2017-03-22T00:22:05.717Z,21.3
2017-03-22T00:24:05.754Z,21.3
2017-03-22T00:26:08.007Z,21.3
2017-03-22T00:28:05.255Z,21.3
2017-03-22T00:30:07.889Z,21.3
2017-03-22T00:32:08.124Z,21.3
2017-03-22T00:34:07.385Z,21.3
2017-03-22T00:36:05.239Z,21.3
2017-03-22T00:38:07.885Z,21.3
2017-03-22T00:40:05.576Z,21.3
2017-03-22T00:42:07.951Z,21.3
2017-03-22T00:44:07.644Z,21.2
2017-03-22T00:46:07.836Z,21.2
2017-03-22T00:48:05.121Z,21.3
2017-03-22T00:50:05.035Z,21.3
2017-03-22T00:52:04.687Z,21.3
2017-03-22T00:54:08.351Z,21.3
2017-03-22T00:56:05.024Z,21.2
2017-03-22T00:58:04.700Z,21.3
2017-03-22T01:00:05.640Z,21.3
2017-03-22T01:02:05.355Z,21.3
2017-03-22T01:04:05.133Z,21.2
2017-03-22T01:06:05.543Z,21.2
2017-03-22T01:08:05.259Z,21.2
2017-03-22T01:10:05.151Z,21.2
2017-03-22T01:12:06.574Z,21.2
2017-03-22T01:14:05.314Z,21.2
2017-03-22T01:16:04.964Z,21.2
2017-03-22T01:18:07.672Z,21.2
2017-03-22T01:20:04.878Z,21.2
2017-03-22T01:22:08.095Z,21.3
2017-03-22T01:24:05.034Z,21.2
2017-03-22T01:26:12.692Z,21.2
2017-03-22T01:28:05.435Z,21.2
2017-03-22T01:30:05.285Z,21.2
2017-03-22T01:32:04.970Z,21.2
2017-03-22T01:34:04.747Z,21.2
2017-03-22T01:36:05.773Z,21.2
2017-03-22T01:38:05.434Z,21.2
2017-03-22T01:40:05.193Z,21.2
2017-03-22T01:42:10.462Z,21.2
2017-03-22T01:44:07.670Z,21.2
2017-03-22T01:46:07.402Z,21.2
2017-03-22T01:48:07.177Z,21.2
2017-03-22T01:50:11.042Z,21.2
2017-03-22T01:52:05.324Z,21.2
2017-03-22T01:54:07.815Z,21.2
2017-03-22T01:56:10.567Z,21.2
2017-03-22T01:58:10.691Z,21.2
2017-03-22T02:00:07.849Z,21.2
2017-03-22T02:02:10.578Z,21.2
2017-03-22T02:04:05.285Z,21.2
2017-03-22T02:06:05.348Z,21.2
2017-03-22T02:08:05.067Z,21.2
2017-03-22T02:10:14.852Z,21.1
2017-03-22T02:12:05.846Z,21.2
2017-03-22T02:14:05.773Z,21.2
2017-03-22T02:16:05.459Z,21.2
2017-03-22T02:18:05.488Z,21.2
2017-03-22T02:20:07.724Z,21.2
2017-03-22T02:22:05.424Z,21.2
2017-03-22T02:24:10.166Z,21.2
2017-03-22T02:26:09.893Z,21.1
2017-03-22T02:28:05.613Z,21.1
2017-03-22T02:30:10.553Z,21.2
2017-03-22T02:32:05.217Z,21.2
2017-03-22T02:34:07.390Z,21.1
2017-03-22T02:36:05.344Z,21.1
2017-03-22T02:38:05.035Z,21.1
2017-03-22T02:40:05.250Z,21.1
2017-03-22T02:42:10.147Z,21.1
2017-03-22T02:44:05.430Z,21.1
2017-03-22T02:46:05.437Z,21.1
2017-03-22T02:48:05.317Z,21.1
2017-03-22T02:50:05.060Z,21.1
2017-03-22T02:52:04.931Z,21.1
2017-03-22T02:54:05.026Z,21.1
2017-03-22T02:56:05.272Z,21.1
2017-03-22T02:58:04.970Z,21.1
2017-03-22T03:00:04.975Z,21.1
2017-03-22T03:02:04.945Z,21.1
2017-03-22T03:04:04.673Z,21.1
2017-03-22T03:06:05.700Z,21.1
2017-03-22T03:08:04.857Z,21.1
2017-03-22T03:10:05.537Z,21.1
2017-03-22T03:12:07.933Z,21.1
2017-03-22T03:14:04.694Z,21.1
2017-03-22T03:16:04.972Z,21.1
2017-03-22T03:18:05.275Z,21.1
2017-03-22T03:20:04.964Z,21.1
2017-03-22T03:22:07.298Z,21.1
2017-03-22T03:24:05.335Z,21.1
2017-03-22T03:26:05.015Z,21.1
2017-03-22T03:28:07.279Z,21.1
2017-03-22T03:30:07.754Z,21.1
2017-03-22T03:32:10.636Z,21.1
2017-03-22T03:34:08.007Z,21.1
2017-03-22T03:36:05.121Z,21.1
2017-03-22T03:38:07.408Z,21.1
2017-03-22T03:40:05.101Z,21.1
2017-03-22T03:42:05.545Z,21.1
2017-03-22T03:44:09.821Z,21.1
2017-03-22T03:46:10.559Z,21.1
2017-03-22T03:48:05.074Z,21.1
2017-03-22T03:50:05.069Z,21.1
2017-03-22T03:52:04.756Z,21.1
2017-03-22T03:54:06.381Z,21.1
2017-03-22T03:56:07.619Z,21.1
2017-03-22T03:58:05.324Z,21.1
2017-03-22T04:00:07.877Z,21.1
2017-03-22T04:02:05.542Z,21.1
2017-03-22T04:04:04.840Z,21.1
2017-03-22T04:06:05.666Z,21
2017-03-22T04:08:05.473Z,21.1
2017-03-22T04:10:07.756Z,21
2017-03-22T04:12:05.758Z,21
2017-03-22T04:14:05.529Z,21
2017-03-22T04:16:05.237Z,21
2017-03-22T04:18:05.545Z,21
2017-03-22T04:20:05.431Z,21
2017-03-22T04:22:05.695Z,21.1
2017-03-22T04:24:05.738Z,21
2017-03-22T04:26:04.972Z,21.1
2017-03-22T04:28:07.240Z,21
2017-03-22T04:30:05.769Z,21
2017-03-22T04:32:05.460Z,21
2017-03-22T04:34:05.220Z,21
2017-03-22T04:36:05.911Z,21
2017-03-22T04:38:05.464Z,21
2017-03-22T04:40:05.203Z,21
2017-03-22T04:42:05.047Z,21
2017-03-22T04:44:07.287Z,21
2017-03-22T04:46:05.048Z,21
2017-03-22T04:48:04.919Z,21
2017-03-22T04:50:04.595Z,21
2017-03-22T04:52:04.887Z,21
2017-03-22T04:54:06.360Z,21
2017-03-22T04:56:05.103Z,21
2017-03-22T04:58:07.371Z,21
2017-03-22T05:00:07.290Z,21
2017-03-22T05:02:05.531Z,21
2017-03-22T05:04:05.242Z,21
2017-03-22T05:06:07.642Z,21
2017-03-22T05:08:05.356Z,21
2017-03-22T05:10:07.681Z,21
2017-03-22T05:12:05.616Z,21
2017-03-22T05:14:07.877Z,21
2017-03-22T05:16:07.630Z,21
2017-03-22T05:18:05.847Z,21
2017-03-22T05:20:05.548Z,21
2017-03-22T05:22:07.830Z,21
2017-03-22T05:24:05.725Z,21
2017-03-22T05:26:05.708Z,21
2017-03-22T05:28:05.408Z,21
2017-03-22T05:30:10.307Z,21
2017-03-22T05:32:05.009Z,21
2017-03-22T05:34:07.313Z,21
2017-03-22T05:36:05.753Z,21
2017-03-22T05:38:05.466Z,21
2017-03-22T05:40:07.669Z,21
2017-03-22T05:42:05.658Z,21
2017-03-22T05:44:10.406Z,21
2017-03-22T05:46:04.630Z,21
2017-03-22T05:48:05.896Z,21
2017-03-22T05:50:07.138Z,21
2017-03-22T05:52:10.467Z,21
2017-03-22T05:54:05.259Z,21
2017-03-22T05:56:04.967Z,21
2017-03-22T05:58:04.817Z,21
2017-03-22T06:00:05.803Z,21
2017-03-22T06:02:07.999Z,21.1
2017-03-22T06:04:04.682Z,21.1
2017-03-22T06:06:05.898Z,21.1
2017-03-22T06:08:05.554Z,21.1
2017-03-22T06:10:04.731Z,21.1
2017-03-22T06:12:05.946Z,21.1
2017-03-22T06:14:05.059Z,21.1
2017-03-22T06:16:04.758Z,21.1
2017-03-22T06:18:05.007Z,21.1
2017-03-22T06:20:07.227Z,21.1
2017-03-22T06:22:04.917Z,21.1
2017-03-22T06:24:04.970Z,21.1
2017-03-22T06:26:04.669Z,21.1
2017-03-22T06:28:05.402Z,21.1
2017-03-22T06:30:05.527Z,21.1
2017-03-22T06:32:07.741Z,21.1
2017-03-22T06:34:08.014Z,21.1
2017-03-22T06:36:04.838Z,21.1
2017-03-22T06:38:05.563Z,21.1
2017-03-22T06:40:05.315Z,21
2017-03-22T06:42:08.390Z,21.1
2017-03-22T06:44:07.650Z,21.1
2017-03-22T06:46:08.031Z,21.1
2017-03-22T06:48:05.574Z,21.1
2017-03-22T06:50:04.804Z,21.1
2017-03-22T06:52:05.550Z,21.1
2017-03-22T06:54:05.674Z,21.2
2017-03-22T06:56:05.412Z,21.2
2017-03-22T06:58:05.296Z,21.2
2017-03-22T07:00:05.364Z,21.2
2017-03-22T07:02:07.729Z,21.3
2017-03-22T07:04:05.468Z,21.3
2017-03-22T07:06:05.437Z,21.3
2017-03-22T07:08:10.195Z,21.4
2017-03-22T07:10:04.869Z,21.4
2017-03-22T07:12:05.780Z,21.4
2017-03-22T07:14:05.475Z,21.4
2017-03-22T07:16:10.208Z,21.5
2017-03-22T07:18:05.552Z,21.5
2017-03-22T07:20:07.332Z,21.5
2017-03-22T07:22:15.643Z,21.5
2017-03-22T07:24:05.642Z,21.6
2017-03-22T07:26:04.919Z,21.6
2017-03-22T07:28:05.580Z,21.6
2017-03-22T07:30:05.532Z,21.6
2017-03-22T07:32:04.771Z,21.6
2017-03-22T07:34:05.136Z,21.7
2017-03-22T07:36:05.913Z,21.7
2017-03-22T07:38:08.138Z,21.7
2017-03-22T07:40:04.906Z,21.7
2017-03-22T07:42:04.750Z,21.7
2017-03-22T07:44:05.451Z,21.8
2017-03-22T07:46:04.688Z,21.8
2017-03-22T07:48:05.263Z,21.8
2017-03-22T07:50:05.291Z,21.8
2017-03-22T07:52:04.981Z,21.8
2017-03-22T07:54:07.554Z,21.9
2017-03-22T07:56:05.269Z,21.9
2017-03-22T07:58:04.993Z,21.9
2017-03-22T08:00:07.523Z,21.9
2017-03-22T08:02:09.823Z,21.9
2017-03-22T08:04:07.999Z,22
2017-03-22T08:06:05.079Z,22
2017-03-22T08:08:04.803Z,22
2017-03-22T08:10:08.037Z,22
2017-03-22T08:12:07.659Z,22
2017-03-22T08:14:05.369Z,22.1
2017-03-22T08:16:05.085Z,22.1
2017-03-22T08:18:05.312Z,22.1
2017-03-22T08:20:05.032Z,22.1
2017-03-22T08:22:05.021Z,22.1
2017-03-22T08:24:05.445Z,22.2
2017-03-22T08:26:10.197Z,22.2
2017-03-22T08:28:08.012Z,22.3
2017-03-22T08:30:05.006Z,22.2
2017-03-22T08:32:04.654Z,22.3
2017-03-22T08:34:05.366Z,22.2
2017-03-22T08:36:05.200Z,22.3
2017-03-22T08:38:07.632Z,22.3
2017-03-22T08:40:07.372Z,22.4
2017-03-22T08:42:05.271Z,22.4
2017-03-22T08:44:07.514Z,22.5
2017-03-22T08:46:07.723Z,22.4
2017-03-22T08:48:10.595Z,22.5
2017-03-22T08:50:05.291Z,22.5
2017-03-22T08:52:05.573Z,22.5
2017-03-22T08:54:05.440Z,22.6
2017-03-22T08:56:12.268Z,22.6
2017-03-22T08:58:04.944Z,22.6
2017-03-22T09:00:04.747Z,22.7
2017-03-22T09:02:05.495Z,22.7
2017-03-22T09:04:07.338Z,22.7
2017-03-22T09:06:06.142Z,22.7
2017-03-22T09:08:04.847Z,22.8
2017-03-22T09:10:05.372Z,22.8
2017-03-22T09:12:05.393Z,22.8
2017-03-22T09:14:08.062Z,22.9
2017-03-22T09:16:09.896Z,22.9
2017-03-22T09:18:05.301Z,22.9
2017-03-22T09:20:05.073Z,22.9
2017-03-22T09:22:04.757Z,23
2017-03-22T09:24:08.357Z,23.2
2017-03-22T09:26:05.402Z,23.2
2017-03-22T09:28:05.615Z,23.2
2017-03-22T09:30:05.608Z,23.2
2017-03-22T09:32:05.318Z,23.3
2017-03-22T09:34:05.536Z,23.3
2017-03-22T09:36:05.375Z,23.2
2017-03-22T09:38:10.191Z,23.1
2017-03-22T09:40:04.869Z,23.1
2017-03-22T09:42:06.316Z,23.1
2017-03-22T09:44:07.586Z,23.2
2017-03-22T09:46:07.837Z,23.2
2017-03-22T09:48:05.197Z,23.2
2017-03-22T09:50:04.873Z,23.2
2017-03-22T09:52:05.615Z,23
2017-03-22T09:54:07.674Z,22.9
2017-03-22T09:56:05.310Z,22.9
2017-03-22T09:58:05.422Z,22.8
2017-03-22T10:00:05.484Z,22.7
2017-03-22T10:02:05.187Z,22.6
2017-03-22T10:04:07.961Z,22.5
2017-03-22T10:06:04.968Z,22.5
2017-03-22T10:08:07.283Z,22.5
2017-03-22T10:10:05.513Z,22.4
2017-03-22T10:12:08.051Z,22.4
2017-03-22T10:14:07.607Z,22.3
2017-03-22T10:16:05.306Z,22.3
2017-03-22T10:18:05.353Z,22.2
2017-03-22T10:20:05.077Z,22.2
2017-03-22T10:22:04.931Z,22.2
2017-03-22T10:24:04.819Z,22.1
2017-03-22T10:26:08.068Z,22.1
2017-03-22T10:28:04.734Z,22.1
2017-03-22T10:30:06.076Z,22.1
2017-03-22T10:32:04.760Z,22
2017-03-22T10:34:05.508Z,22
2017-03-22T10:36:07.910Z,22
2017-03-22T10:38:05.183Z,21.9
2017-03-22T10:40:07.380Z,21.9
2017-03-22T10:42:04.896Z,21.9
2017-03-22T10:44:07.153Z,21.9
2017-03-22T10:46:05.556Z,21.9
2017-03-22T10:48:05.644Z,21.9
2017-03-22T10:50:07.410Z,21.8
2017-03-22T10:52:07.705Z,21.8
2017-03-22T10:54:05.736Z,21.8
2017-03-22T10:56:05.438Z,21.8
2017-03-22T10:58:05.125Z,21.8
2017-03-22T11:00:05.049Z,21.8
2017-03-22T11:02:12.565Z,21.8
2017-03-22T11:04:05.249Z,21.8
2017-03-22T11:06:10.225Z,21.7
2017-03-22T11:08:04.952Z,21.7
2017-03-22T11:10:05.387Z,21.7
2017-03-22T11:12:07.674Z,21.7
2017-03-22T11:14:07.924Z,21.7
2017-03-22T11:16:04.691Z,21.7
2017-03-22T11:18:09.021Z,21.7
2017-03-22T11:20:05.224Z,21.7
2017-03-22T11:22:04.928Z,21.7
2017-03-22T11:24:04.845Z,21.6
2017-03-22T11:26:05.538Z,21.6
2017-03-22T11:28:07.764Z,21.6
2017-03-22T11:30:05.088Z,21.6
2017-03-22T11:32:04.750Z,21.6
2017-03-22T11:34:05.580Z,21.6
2017-03-22T11:36:05.124Z,21.6
2017-03-22T11:38:04.771Z,21.5
2017-03-22T11:40:07.983Z,21.2
2017-03-22T11:42:04.873Z,21.2
2017-03-22T11:44:04.627Z,21
2017-03-22T11:46:07.912Z,20.8
2017-03-22T11:48:07.495Z,20.7
2017-03-22T11:50:08.096Z,20.7
2017-03-22T11:52:05.428Z,20.7
2017-03-22T11:54:08.012Z,20.9
2017-03-22T11:56:04.787Z,20.9
2017-03-22T11:58:05.076Z,20.9
2017-03-22T12:00:05.287Z,20.9
2017-03-22T12:02:04.958Z,20.9
2017-03-22T12:04:05.349Z,20.9
2017-03-22T12:06:10.075Z,20.9
2017-03-22T12:08:04.744Z,21
2017-03-22T12:10:05.436Z,21.1
2017-03-22T12:12:07.959Z,21.3
2017-03-22T12:14:04.884Z,21.3
2017-03-22T12:16:10.415Z,21.3
2017-03-22T12:18:08.273Z,21.3
2017-03-22T12:20:05.027Z,21.3
2017-03-22T12:22:04.911Z,21.3
2017-03-22T12:24:04.961Z,21.4
2017-03-22T12:26:04.656Z,21.4
2017-03-22T12:28:05.423Z,21.3
2017-03-22T12:30:04.869Z,21.3
2017-03-22T12:32:05.528Z,21.3
2017-03-22T12:34:05.219Z,21.4
2017-03-22T12:36:12.627Z,21.4
2017-03-22T12:38:05.537Z,21.4
2017-03-22T12:40:04.767Z,21.4
2017-03-22T12:42:05.990Z,21.4
2017-03-22T12:44:04.934Z,21.4
2017-03-22T12:46:04.731Z,21.4
2017-03-22T12:48:05.827Z,21.5
2017-03-22T12:50:05.025Z,21.4
2017-03-22T12:52:07.309Z,21.5
2017-03-22T12:54:05.828Z,21.5
2017-03-22T12:56:05.588Z,21.5
2017-03-22T12:58:04.804Z,21.5
2017-03-22T13:00:13.391Z,21.5
2017-03-22T13:02:05.079Z,21.5
2017-03-22T13:04:05.391Z,21.5
2017-03-22T13:06:05.804Z,21.5
2017-03-22T13:08:18.184Z,21.4
2017-03-22T13:10:05.018Z,21.4
2017-03-22T13:12:04.969Z,21.5
2017-03-22T13:14:04.699Z,21.5
2017-03-22T13:16:10.438Z,21.4
2017-03-22T13:18:08.920Z,21.4
2017-03-22T13:20:07.197Z,21.4
2017-03-22T13:22:07.954Z,21.4
2017-03-22T13:24:05.382Z,21.4
2017-03-22T13:26:10.387Z,21.4
2017-03-22T13:28:05.592Z,21.4
2017-03-22T13:30:06.039Z,21.4
2017-03-22T13:32:04.711Z,21.4
2017-03-22T13:34:05.382Z,21.4
2017-03-22T13:36:10.549Z,21.3
2017-03-22T13:38:07.742Z,21.3
2017-03-22T13:40:05.439Z,21.3
2017-03-22T13:42:05.282Z,21.3
2017-03-22T13:44:04.971Z,21.3
2017-03-22T13:46:04.725Z,21.3
2017-03-22T13:48:05.619Z,21.3
2017-03-22T13:50:05.307Z,21.3
2017-03-22T13:52:05.516Z,21.3
2017-03-22T13:54:05.594Z,21.3
2017-03-22T13:56:05.224Z,21.3
2017-03-22T13:58:07.714Z,21.3
2017-03-22T14:00:05.546Z,21.3
2017-03-22T14:02:04.759Z,21.3
2017-03-22T14:04:04.980Z,21.2
2017-03-22T14:06:07.482Z,21.3
2017-03-22T14:08:07.797Z,21.3
2017-03-22T14:10:05.511Z,21.3
2017-03-22T14:12:06.340Z,21.3
2017-03-22T14:14:05.521Z,21.3
2017-03-22T14:16:04.797Z,21.3
2017-03-22T14:18:05.046Z,21.3
2017-03-22T14:20:07.286Z,21.2
2017-03-22T14:22:05.000Z,21.2
2017-03-22T14:24:05.280Z,21.2
2017-03-22T14:26:04.988Z,21.2
2017-03-22T14:28:04.699Z,21.2
2017-03-22T14:30:05.036Z,21.2
2017-03-22T14:32:04.701Z,21.2
2017-03-22T14:34:05.497Z,21.2
2017-03-22T14:36:05.338Z,21.2
2017-03-22T14:38:07.520Z,21.2
2017-03-22T14:40:05.339Z,21.2
2017-03-22T14:42:05.159Z,21.2
2017-03-22T14:44:04.869Z,21.2
2017-03-22T14:46:10.782Z,21.2
2017-03-22T14:48:08.306Z,21.2
2017-03-22T14:50:05.106Z,21.2
2017-03-22T14:52:09.851Z,21.2
2017-03-22T14:54:05.720Z,21.2
2017-03-22T14:56:05.433Z,21.2
2017-03-22T14:58:05.154Z,21.2
2017-03-22T15:00:08.097Z,21.2
2017-03-22T15:02:07.483Z,21.2
2017-03-22T15:04:05.176Z,21.2
2017-03-22T15:06:05.640Z,21.2
2017-03-22T15:08:05.386Z,21.2
2017-03-22T15:10:05.140Z,21.3
2017-03-22T15:12:07.668Z,21.3
2017-03-22T15:14:05.362Z,21.3
2017-03-22T15:16:05.272Z,21.3
2017-03-22T15:18:05.527Z,21.3
2017-03-22T15:20:10.503Z,21.3
2017-03-22T15:22:05.199Z,21.3
2017-03-22T15:24:05.735Z,21.3
2017-03-22T15:26:05.423Z,21.3
2017-03-22T15:28:05.081Z,21.3
2017-03-22T15:30:06.230Z,21.3
2017-03-22T15:32:12.539Z,21.2
2017-03-22T15:34:05.946Z,21.2
2017-03-22T15:36:04.849Z,21.2
2017-03-22T15:38:05.564Z,21.2
2017-03-22T15:40:04.887Z,21.2
2017-03-22T15:42:07.302Z,21.2
2017-03-22T15:44:07.979Z,21.2
2017-03-22T15:46:04.877Z,21.2
2017-03-22T15:48:05.764Z,21.2
2017-03-22T15:50:10.904Z,21.2
2017-03-22T15:52:05.125Z,21.2
2017-03-22T15:54:05.192Z,21.2
2017-03-22T15:56:05.156Z,21.2
2017-03-22T15:58:04.806Z,21.2
2017-03-22T16:00:05.816Z,21.2
2017-03-22T16:02:05.117Z,21.2
2017-03-22T16:04:04.843Z,21.1
2017-03-22T16:06:05.821Z,21.1
2017-03-22T16:08:05.579Z,21.1
2017-03-22T16:10:05.264Z,21.1
2017-03-22T16:12:05.085Z,21.1
2017-03-22T16:14:10.529Z,21.1
2017-03-22T16:16:08.028Z,21.1
2017-03-22T16:18:05.495Z,21.1
2017-03-22T16:20:05.228Z,21.1
2017-03-22T16:22:10.291Z,21.1
2017-03-22T16:24:05.664Z,21.2
2017-03-22T16:26:05.372Z,21.1
2017-03-22T16:28:05.132Z,21.2
2017-03-22T16:30:05.552Z,21.2
2017-03-22T16:32:07.790Z,21.2
2017-03-22T16:34:05.044Z,21.2
2017-03-22T16:36:04.994Z,21.2
2017-03-22T16:38:09.957Z,21.2
2017-03-22T16:40:07.228Z,21.2
2017-03-22T16:42:05.609Z,21.2
2017-03-22T16:44:05.303Z,21.2
2017-03-22T16:46:04.961Z,21.2
2017-03-22T16:50:05.677Z,21.2
2017-03-22T16:52:04.851Z,21.2
2017-03-22T16:54:10.557Z,21.2
2017-03-22T16:56:07.955Z,21.2
2017-03-22T16:58:04.882Z,21.2
2017-03-22T17:00:10.651Z,21.2
2017-03-22T17:02:05.670Z,21.2
2017-03-22T17:04:05.496Z,21.2
2017-03-22T17:06:05.394Z,21.2
2017-03-22T17:08:05.450Z,21.2
2017-03-22T17:10:08.044Z,21.1
2017-03-22T17:12:05.225Z,21.2
2017-03-22T17:14:05.944Z,21.1
2017-03-22T17:16:04.614Z,21.1
2017-03-22T17:18:08.089Z,21.1
2017-03-22T17:20:05.052Z,21.1
2017-03-22T17:22:09.771Z,21.1
2017-03-22T17:24:05.462Z,21.1
2017-03-22T17:26:05.001Z,21.1
2017-03-22T17:28:04.710Z,21.1
2017-03-22T17:30:07.949Z,21.1
2017-03-22T17:32:04.820Z,21.1
2017-03-22T17:34:05.607Z,21.1
2017-03-22T17:36:04.844Z,21.1
2017-03-22T17:38:05.813Z,21.1
2017-03-22T17:40:05.586Z,21.1
2017-03-22T17:42:07.979Z,21
2017-03-22T17:44:05.116Z,21
2017-03-22T17:46:10.477Z,21
2017-03-22T17:48:07.794Z,21
2017-03-22T17:50:05.779Z,21
2017-03-22T17:52:07.985Z,20.9
2017-03-22T17:54:09.776Z,20.9
2017-03-22T17:56:05.096Z,20.9
2017-03-22T17:58:05.150Z,20.9
2017-03-22T18:00:04.900Z,21
2017-03-22T18:02:05.748Z,21
2017-03-22T18:04:05.452Z,21.1
2017-03-22T18:06:05.133Z,21.1
2017-03-22T18:08:05.690Z,21.1
2017-03-22T18:10:05.380Z,21.1
2017-03-22T18:12:07.603Z,21.1
2017-03-22T18:14:06.329Z,21.1
2017-03-22T18:16:05.053Z,21.1
2017-03-22T18:18:06.931Z,21.1
2017-03-22T18:20:05.738Z,21.1
2017-03-22T18:22:05.497Z,21.1
2017-03-22T18:24:07.785Z,21.1
2017-03-22T18:26:05.785Z,21.1
2017-03-22T18:28:05.482Z,21.1
2017-03-22T18:30:04.980Z,21.1
2017-03-22T18:32:07.351Z,21.1
2017-03-22T18:34:05.078Z,21.1
2017-03-22T18:36:09.800Z,21.1
2017-03-22T18:38:10.473Z,21.1
2017-03-22T18:40:09.775Z,21.1
2017-03-22T18:42:05.478Z,21.1
2017-03-22T18:44:07.845Z,21.1
2017-03-22T18:46:04.938Z,21.1
2017-03-22T18:48:04.628Z,21.1
2017-03-22T18:50:07.963Z,21.2
2017-03-22T18:52:04.601Z,21.2
2017-03-22T18:54:07.830Z,21.2
2017-03-22T18:56:05.802Z,21.2
2017-03-22T18:58:08.065Z,21.3
2017-03-22T19:00:07.827Z,21.3
2017-03-22T19:02:07.891Z,21.3
2017-03-22T19:04:04.702Z,21.3
2017-03-22T19:06:10.434Z,21.3
2017-03-22T19:08:07.865Z,21.3
2017-03-22T19:10:05.550Z,21.3
2017-03-22T19:12:10.097Z,21.3
2017-03-22T19:14:09.200Z,21.3
2017-03-22T19:16:07.425Z,21.3
2017-03-22T19:18:05.482Z,21.3
2017-03-22T19:20:05.437Z,21.3
2017-03-22T19:22:04.640Z,21.3
2017-03-22T19:24:05.311Z,21.3
2017-03-22T19:26:05.279Z,21.3
2017-03-22T19:28:10.550Z,21.3
2017-03-22T19:30:07.785Z,21.3
2017-03-22T19:32:05.615Z,21.3
2017-03-22T19:34:05.747Z,21.3
2017-03-22T19:36:05.649Z,21.3
2017-03-22T19:38:05.854Z,21.3
2017-03-22T19:40:07.971Z,21.3
2017-03-22T19:42:07.203Z,21.3
2017-03-22T19:44:05.111Z,21.3
2017-03-22T19:46:07.320Z,21.3
2017-03-22T19:48:05.020Z,21.3
2017-03-22T19:50:10.161Z,21.3
2017-03-22T19:52:07.362Z,21.4
2017-03-22T19:54:05.544Z,21.4
2017-03-22T19:56:12.746Z,21.4
2017-03-22T19:58:07.989Z,21.4
2017-03-22T20:00:04.651Z,21.4
2017-03-22T20:02:05.591Z,21.4
2017-03-22T20:04:05.502Z,21.4
2017-03-22T20:06:05.445Z,21.3
2017-03-22T20:08:07.495Z,21.3
2017-03-22T20:10:05.142Z,21.3
2017-03-22T20:12:09.937Z,21.3
2017-03-22T20:14:06.284Z,21.3
2017-03-22T20:16:05.026Z,21.3
2017-03-22T20:18:04.972Z,21.3
2017-03-22T20:20:04.964Z,21.3
2017-03-22T20:22:05.167Z,21.3
2017-03-22T20:24:04.863Z,21.3
2017-03-22T20:26:05.832Z,21.3
2017-03-22T20:28:05.551Z,21.3
2017-03-22T20:30:05.244Z,21.3
2017-03-22T20:32:05.152Z,21.3
2017-03-22T20:34:09.954Z,21.2
2017-03-22T20:36:05.632Z,21.2
2017-03-22T20:38:09.065Z,21.2
2017-03-22T20:40:04.735Z,21.2
2017-03-22T20:42:07.140Z,21.2
2017-03-22T20:44:05.037Z,21.2
2017-03-22T20:46:04.753Z,21.2
2017-03-22T20:48:05.483Z,21.2
2017-03-22T20:50:07.921Z,21.2
2017-03-22T20:52:05.650Z,21.2
2017-03-22T20:54:05.733Z,21.2
2017-03-22T20:56:05.683Z,21.2
2017-03-22T20:58:08.913Z,21.2
2017-03-22T21:00:04.734Z,21.2
2017-03-22T21:02:13.408Z,21.2
2017-03-22T21:04:05.299Z,21.2
2017-03-22T21:06:05.524Z,21.2
2017-03-22T21:08:05.541Z,21.2
2017-03-22T21:10:05.556Z,21.1
2017-03-22T21:12:06.281Z,21.1
2017-03-22T21:14:05.654Z,21.1
2017-03-22T21:16:07.373Z,21.1
2017-03-22T21:18:10.349Z,21.1
2017-03-22T21:20:07.693Z,21.1
2017-03-22T21:22:07.905Z,21.1
2017-03-22T21:24:05.557Z,21.1
2017-03-22T21:26:05.692Z,21.1
2017-03-22T21:28:05.680Z,21.1
2017-03-22T21:30:05.564Z,21
2017-03-22T21:32:05.753Z,21
2017-03-22T21:34:10.574Z,20.9
2017-03-22T21:36:04.802Z,20.9
2017-03-22T21:38:05.692Z,20.9
2017-03-22T21:40:07.889Z,20.8
2017-03-22T21:42:08.445Z,20.8
2017-03-22T21:44:05.428Z,20.8
2017-03-22T21:46:05.077Z,20.8
2017-03-22T21:48:07.279Z,20.8
2017-03-22T21:50:05.227Z,20.8
2017-03-22T21:52:05.131Z,20.8
2017-03-22T21:54:05.075Z,20.7
2017-03-22T21:56:05.188Z,20.7
2017-03-22T21:58:05.266Z,20.7
2017-03-22T22:00:05.976Z,20.7
2017-03-22T22:02:05.321Z,20.7
2017-03-22T22:04:04.984Z,20.7
2017-03-22T22:06:07.282Z,20.7
2017-03-22T22:08:06.540Z,20.6
2017-03-22T22:10:05.774Z,20.6
2017-03-22T22:12:04.918Z,20.6
2017-03-22T22:14:05.526Z,20.6
2017-03-22T22:16:07.789Z,20.6
2017-03-22T22:18:05.316Z,20.6
2017-03-22T22:20:07.964Z,20.6
2017-03-22T22:22:04.621Z,20.6
2017-03-22T22:24:07.837Z,20.5
2017-03-22T22:26:05.845Z,20.5
2017-03-22T22:28:05.143Z,20.5
2017-03-22T22:30:05.923Z,20.5
2017-03-22T22:32:05.927Z,20.5
2017-03-22T22:34:05.611Z,20.5
2017-03-22T22:36:05.302Z,20.5
2017-03-22T22:38:07.710Z,20.5
2017-03-22T22:40:05.363Z,20.5
2017-03-22T22:42:10.123Z,20.5
2017-03-22T22:44:04.883Z,20.5
2017-03-22T22:46:05.711Z,20.5
2017-03-22T22:48:07.944Z,20.4
2017-03-22T22:50:05.185Z,20.5
2017-03-22T22:52:04.857Z,20.5
2017-03-22T22:54:05.696Z,20.4
2017-03-22T22:56:05.255Z,20.4
2017-03-22T22:58:07.483Z,20.4
2017-03-22T23:00:04.683Z,20.4
2017-03-22T23:02:05.716Z,20.4
2017-03-22T23:04:05.018Z,20.4
2017-03-22T23:06:04.799Z,20.4
2017-03-22T23:08:05.795Z,20.4
2017-03-22T23:10:11.557Z,20.4
2017-03-22T23:12:10.574Z,20.4
2017-03-22T23:14:05.573Z,20.4
2017-03-22T23:16:05.252Z,20.3
2017-03-22T23:18:07.935Z,20.3
2017-03-22T23:20:05.051Z,20.3
2017-03-22T23:22:04.762Z,20.3
2017-03-22T23:24:05.490Z,20.3
2017-03-22T23:26:05.456Z,20.3
2017-03-22T23:28:05.098Z,20.3
2017-03-22T23:30:04.868Z,20.3
2017-03-22T23:32:05.924Z,20.3
2017-03-22T23:34:04.940Z,20.3
2017-03-22T23:36:04.593Z,20.3
2017-03-22T23:38:05.720Z,20.2
2017-03-22T23:40:10.549Z,20.3
2017-03-22T23:42:05.197Z,20.3
2017-03-22T23:44:05.101Z,20.3
2017-03-22T23:46:07.297Z,20.3
2017-03-22T23:48:05.081Z,20.2
2017-03-22T23:50:10.327Z,20.3
2017-03-22T23:52:10.066Z,20.2
2017-03-22T23:54:05.066Z,20.2
2017-03-22T23:56:05.124Z,20.2
2017-03-22T23:58:05.033Z,20.2
